createdAt,value
2023-05-15T00:01:44.370Z,96.13
2023-05-15T00:04:12.018Z,95.81
2023-05-15T00:06:39.729Z,95.46
2023-05-15T00:09:07.923Z,96.52
2023-05-15T00:11:37.025Z,97.19
2023-05-15T00:14:04.733Z,97.59
2023-05-15T00:16:32.446Z,97.69
2023-05-15T00:19:00.249Z,97.27
2023-05-15T00:21:28.008Z,97.23
2023-05-15T00:23:56.852Z,96.40
2023-05-15T00:26:24.502Z,96.51
2023-05-15T00:28:53.577Z,95.92
2023-05-15T00:31:21.244Z,96.80
2023-05-15T00:33:48.885Z,97.38
2023-05-15T00:36:17.480Z,96.90
2023-05-15T00:38:45.389Z,96.90
2023-05-15T00:41:13.231Z,97.38
2023-05-15T00:43:41.142Z,97.69
2023-05-15T00:46:10.717Z,97.76
2023-05-15T00:48:38.660Z,97.70
2023-05-15T00:51:06.440Z,97.56
2023-05-15T00:53:34.053Z,97.40
2023-05-15T00:56:02.021Z,97.42
2023-05-15T00:58:30.462Z,96.58
2023-05-15T01:00:58.133Z,96.91
2023-05-15T01:03:27.288Z,97.42
2023-05-15T01:05:55.192Z,97.95
2023-05-15T01:08:27.400Z,97.96
2023-05-15T01:10:55.443Z,98.81
2023-05-15T01:13:23.530Z,98.65
2023-05-15T01:15:51.358Z,99.37
2023-05-15T01:18:19.344Z,99.82
2023-05-15T01:21:03.066Z,100.00
2023-05-15T01:23:39.921Z,99.64
2023-05-15T01:26:22.859Z,100.00
2023-05-15T01:28:57.469Z,99.22
2023-05-15T01:31:25.497Z,99.21
2023-05-15T01:33:55.800Z,99.66
2023-05-15T01:36:27.841Z,99.93
2023-05-15T01:38:59.720Z,100.00
2023-05-15T01:41:29.202Z,98.91
2023-05-15T01:44:01.835Z,97.83
2023-05-15T01:46:31.450Z,98.22
2023-05-15T01:49:01.279Z,98.50
2023-05-15T01:51:29.122Z,99.47
2023-05-15T01:53:59.264Z,99.30
2023-05-15T01:56:27.584Z,99.02
2023-05-15T01:58:56.503Z,99.08
2023-05-15T02:01:26.173Z,98.71
2023-05-15T02:03:54.217Z,98.22
2023-05-15T02:06:22.323Z,98.23
2023-05-15T02:08:50.256Z,98.53
2023-05-15T02:11:17.887Z,99.76
2023-05-15T02:13:47.164Z,100.00
2023-05-15T02:16:14.877Z,100.00
2023-05-15T02:18:44.001Z,100.00
2023-05-15T02:21:11.653Z,100.00
2023-05-15T02:23:40.782Z,99.68
2023-05-15T02:26:13.498Z,99.44
2023-05-15T02:28:45.693Z,99.03
2023-05-15T02:31:15.572Z,98.63
2023-05-15T02:33:46.906Z,99.32
2023-05-15T02:36:17.842Z,98.80
2023-05-15T02:38:47.805Z,100.00
2023-05-15T02:41:16.407Z,99.74
2023-05-15T02:43:44.876Z,99.34
2023-05-15T02:46:14.547Z,98.92
2023-05-15T02:48:42.557Z,99.18
2023-05-15T02:51:11.595Z,99.19
2023-05-15T02:53:40.560Z,99.54
2023-05-15T02:56:08.257Z,99.08
2023-05-15T02:58:36.191Z,99.41
2023-05-15T03:01:04.458Z,100.00
2023-05-15T03:03:32.181Z,99.65
2023-05-15T03:06:00.882Z,100.00
2023-05-15T03:08:30.140Z,100.00
2023-05-15T03:10:58.324Z,100.00
2023-05-15T03:13:26.166Z,99.49
2023-05-15T03:15:54.064Z,99.49
2023-05-15T03:18:21.746Z,99.49
2023-05-15T03:20:52.566Z,99.55
2023-05-15T03:23:20.198Z,100.00
2023-05-15T03:25:49.285Z,99.48
2023-05-15T03:28:17.000Z,100.00
2023-05-15T03:30:44.978Z,100.00
2023-05-15T03:33:12.586Z,100.00
2023-05-15T03:35:40.210Z,99.62
2023-05-15T03:38:07.742Z,100.00
2023-05-15T03:40:35.671Z,100.00
2023-05-15T03:43:06.274Z,100.00
2023-05-15T03:45:34.519Z,100.00
2023-05-15T03:48:02.216Z,100.00
2023-05-15T03:50:30.978Z,100.00
2023-05-15T03:53:00.367Z,100.00
2023-05-15T03:55:28.227Z,100.00
2023-05-15T03:57:55.926Z,100.00
2023-05-15T04:00:25.221Z,100.00
2023-05-15T04:02:53.046Z,100.00
2023-05-15T04:05:21.793Z,100.00
2023-05-15T04:07:49.612Z,100.00
2023-05-15T04:10:17.216Z,100.00
2023-05-15T04:12:44.834Z,100.00
2023-05-15T04:15:16.356Z,100.00
2023-05-15T04:17:45.565Z,100.00
2023-05-15T04:20:14.134Z,100.00
2023-05-15T04:22:41.820Z,100.00
2023-05-15T04:25:11.132Z,100.00
2023-05-15T04:27:38.855Z,100.00
2023-05-15T04:30:06.986Z,100.00
2023-05-15T04:32:34.790Z,100.00
2023-05-15T04:35:05.423Z,100.00
2023-05-15T04:37:33.203Z,100.00
2023-05-15T04:40:00.802Z,100.00
2023-05-15T04:42:28.844Z,100.00
2023-05-15T04:44:57.114Z,100.00
2023-05-15T04:47:24.760Z,100.00
2023-05-15T04:49:52.412Z,100.00
2023-05-15T04:52:21.534Z,100.00
2023-05-15T04:54:50.987Z,100.00
2023-05-15T04:57:18.859Z,100.00
2023-05-15T04:59:46.465Z,100.00
2023-05-15T05:02:14.249Z,100.00
2023-05-15T05:04:43.425Z,100.00
2023-05-15T05:07:11.032Z,100.00
2023-05-15T05:09:40.877Z,100.00
2023-05-15T05:12:09.163Z,100.00
2023-05-15T05:14:36.832Z,100.00
2023-05-15T05:17:04.653Z,100.00
2023-05-15T05:19:32.239Z,100.00
2023-05-15T05:22:04.536Z,100.00
2023-05-15T05:24:32.567Z,100.00
2023-05-15T05:27:01.544Z,100.00
2023-05-15T05:29:30.550Z,100.00
2023-05-15T05:31:58.353Z,100.00
2023-05-15T05:34:25.950Z,100.00
2023-05-15T05:36:53.649Z,100.00
2023-05-15T05:39:21.859Z,100.00
2023-05-15T05:41:49.724Z,100.00
2023-05-15T05:44:18.716Z,100.00
2023-05-15T05:46:46.356Z,100.00
2023-05-15T05:49:13.864Z,100.00
2023-05-15T05:51:41.486Z,100.00
2023-05-15T05:54:09.110Z,100.00
2023-05-15T05:56:36.710Z,99.62
2023-05-15T05:59:04.686Z,99.41
2023-05-15T06:01:33.734Z,99.78
2023-05-15T06:04:01.491Z,99.69
2023-05-15T06:06:29.228Z,99.12
2023-05-15T06:08:57.102Z,99.46
2023-05-15T06:11:25.509Z,99.01
2023-05-15T06:13:53.362Z,98.20
2023-05-15T06:16:21.044Z,97.77
2023-05-15T06:18:50.067Z,96.87
2023-05-15T06:21:17.757Z,96.88
2023-05-15T06:23:45.773Z,97.25
2023-05-15T06:26:13.377Z,96.22
2023-05-15T06:28:41.017Z,96.19
2023-05-15T06:31:08.655Z,96.41
2023-05-15T06:33:36.281Z,96.19
2023-05-15T06:36:05.423Z,95.96
2023-05-15T06:38:33.072Z,97.28
2023-05-15T06:41:00.682Z,98.20
2023-05-15T06:43:28.336Z,97.59
2023-05-15T06:45:55.991Z,96.43
2023-05-15T06:48:23.570Z,94.67
2023-05-15T06:50:51.470Z,94.49
2023-05-15T06:53:21.008Z,94.83
2023-05-15T06:55:48.642Z,94.85
2023-05-15T06:58:17.914Z,95.85
2023-05-15T07:00:45.526Z,95.96
2023-05-15T07:03:14.328Z,94.95
2023-05-15T07:05:42.311Z,95.05
2023-05-15T07:08:09.947Z,95.39
2023-05-15T07:10:39.205Z,94.52
2023-05-15T07:13:06.991Z,95.23
2023-05-15T07:15:34.671Z,95.26
2023-05-15T07:18:02.627Z,95.04
2023-05-15T07:20:32.489Z,93.19
2023-05-15T07:23:01.923Z,92.40
2023-05-15T07:25:29.649Z,93.91
2023-05-15T07:27:58.664Z,93.17
2023-05-15T07:30:26.691Z,93.92
2023-05-15T07:32:54.484Z,92.77
2023-05-15T07:35:22.111Z,96.85
2023-05-15T07:37:49.764Z,96.82
2023-05-15T07:40:17.389Z,94.51
2023-05-15T07:42:45.432Z,95.19
2023-05-15T07:45:14.455Z,94.89
2023-05-15T07:47:45.798Z,92.77
2023-05-15T07:50:13.515Z,91.60
2023-05-15T07:52:41.369Z,90.70
2023-05-15T07:55:09.478Z,89.53
2023-05-15T07:57:37.213Z,91.92
2023-05-15T08:00:10.266Z,91.28
2023-05-15T08:02:46.214Z,90.78
2023-05-15T08:05:14.117Z,90.77
2023-05-15T08:07:41.713Z,86.68
2023-05-15T08:10:09.712Z,86.28
2023-05-15T08:12:37.515Z,83.84
2023-05-15T08:15:05.310Z,87.10
2023-05-15T08:17:32.936Z,84.99
2023-05-15T08:20:02.063Z,84.94
2023-05-15T08:22:30.643Z,80.30
2023-05-15T08:24:58.474Z,80.08
2023-05-15T08:27:26.262Z,80.96
2023-05-15T08:29:54.700Z,79.24
2023-05-15T08:32:22.504Z,79.05
2023-05-15T08:34:50.464Z,79.44
2023-05-15T08:37:19.454Z,74.47
2023-05-15T08:39:47.142Z,72.79
2023-05-15T08:42:19.540Z,74.88
2023-05-15T08:44:47.382Z,71.33
2023-05-15T08:47:15.292Z,60.61
2023-05-15T08:49:47.466Z,54.47
2023-05-15T08:52:16.221Z,56.31
2023-05-15T08:54:47.928Z,53.78
2023-05-15T08:57:16.472Z,54.14
2023-05-15T08:59:44.336Z,56.76
2023-05-15T09:02:12.123Z,57.16
2023-05-15T09:04:39.931Z,59.64
2023-05-15T09:07:07.578Z,56.51
2023-05-15T09:09:35.374Z,56.83
2023-05-15T09:12:04.516Z,54.15
2023-05-15T09:14:32.559Z,57.01
2023-05-15T09:17:00.219Z,55.99
2023-05-15T09:19:28.503Z,53.19
2023-05-15T09:21:56.183Z,49.33
2023-05-15T09:24:24.955Z,50.75
2023-05-15T09:27:03.004Z,48.97
2023-05-15T09:29:33.137Z,48.57
2023-05-15T09:32:03.825Z,48.23
2023-05-15T09:34:32.438Z,50.77
2023-05-15T09:37:00.090Z,47.97
2023-05-15T09:39:27.714Z,48.11
2023-05-15T09:41:55.671Z,47.30
2023-05-15T09:44:25.814Z,47.04
2023-05-15T09:46:54.975Z,47.15
2023-05-15T09:49:22.773Z,48.68
2023-05-15T09:51:50.868Z,47.77
2023-05-15T09:54:19.614Z,47.93
2023-05-15T09:56:47.926Z,49.26
2023-05-15T09:59:16.428Z,48.00
2023-05-15T10:01:45.602Z,48.18
2023-05-15T10:04:15.045Z,48.58
2023-05-15T10:06:43.646Z,49.18
2023-05-15T10:09:11.611Z,49.29
2023-05-15T10:11:40.111Z,49.46
2023-05-15T10:14:08.770Z,48.48
2023-05-15T10:16:37.264Z,46.15
2023-05-15T10:19:05.789Z,48.59
2023-05-15T10:21:35.912Z,48.71
2023-05-15T10:24:04.631Z,48.68
2023-05-15T10:26:36.382Z,48.08
2023-05-15T10:29:05.950Z,48.98
2023-05-15T10:31:34.066Z,50.24
2023-05-15T10:34:01.992Z,51.79
2023-05-15T10:36:29.755Z,50.23
2023-05-15T10:38:59.235Z,48.22
2023-05-15T10:41:27.960Z,49.24
2023-05-15T10:43:56.373Z,48.99
2023-05-15T10:46:24.120Z,49.06
2023-05-15T10:48:52.101Z,50.73
2023-05-15T10:51:20.364Z,50.14
2023-05-15T10:53:48.006Z,47.54
2023-05-15T10:56:17.608Z,46.32
2023-05-15T10:58:47.270Z,46.77
2023-05-15T11:01:32.043Z,45.05
2023-05-15T11:04:06.759Z,45.01
2023-05-15T11:06:35.017Z,44.75
2023-05-15T11:09:21.068Z,45.57
2023-05-15T11:11:57.150Z,47.14
2023-05-15T11:17:00.212Z,47.38
2023-05-15T11:19:33.247Z,49.76
2023-05-15T11:22:01.911Z,51.11
2023-05-15T11:24:30.630Z,51.85
2023-05-15T11:27:03.149Z,48.95
2023-05-15T11:29:31.486Z,50.69
2023-05-15T11:31:59.657Z,51.23
2023-05-15T11:34:31.114Z,52.34
2023-05-15T11:36:59.472Z,51.01
2023-05-15T11:39:27.419Z,49.67
2023-05-15T11:41:55.356Z,46.27
2023-05-15T11:44:24.823Z,47.60
2023-05-15T11:46:52.475Z,49.72
2023-05-15T11:49:20.601Z,51.81
2023-05-15T11:51:49.210Z,52.15
2023-05-15T11:54:17.819Z,52.27
2023-05-15T11:56:46.003Z,53.56
2023-05-15T11:59:14.644Z,51.63
2023-05-15T12:01:45.440Z,50.08
2023-05-15T12:04:14.293Z,53.33
2023-05-15T12:06:44.461Z,51.02
2023-05-15T12:09:16.147Z,53.37
2023-05-15T12:11:48.670Z,48.11
2023-05-15T12:14:16.305Z,48.93
2023-05-15T12:16:45.388Z,47.73
2023-05-15T12:19:13.225Z,48.09
2023-05-15T12:21:47.041Z,50.07
2023-05-15T12:24:14.637Z,47.52
2023-05-15T12:26:42.378Z,48.64
2023-05-15T12:29:10.311Z,49.95
2023-05-15T12:31:38.417Z,51.29
2023-05-15T12:34:08.008Z,50.01
2023-05-15T12:36:35.646Z,50.98
2023-05-15T12:39:06.300Z,53.10
2023-05-15T12:41:34.031Z,52.88
2023-05-15T12:44:01.612Z,45.92
2023-05-15T12:46:31.706Z,46.09
2023-05-15T12:48:59.496Z,46.43
2023-05-15T12:51:29.963Z,47.76
2023-05-15T12:53:58.849Z,48.09
2023-05-15T12:56:26.548Z,48.48
2023-05-15T12:58:55.491Z,50.79
2023-05-15T13:01:23.358Z,57.68
2023-05-15T13:03:51.697Z,63.87
2023-05-15T13:06:19.906Z,66.25
2023-05-15T13:08:49.058Z,65.30
2023-05-15T13:11:18.309Z,66.79
2023-05-15T13:13:46.780Z,64.04
2023-05-15T13:16:21.528Z,63.02
2023-05-15T13:18:49.431Z,64.21
2023-05-15T13:21:17.176Z,65.22
2023-05-15T13:23:44.812Z,65.80
2023-05-15T13:26:13.883Z,65.91
2023-05-15T13:28:41.656Z,70.28
2023-05-15T13:31:09.406Z,78.27
2023-05-15T13:33:37.577Z,82.40
2023-05-15T13:36:05.535Z,88.41
2023-05-15T13:38:33.454Z,90.38
2023-05-15T13:41:01.183Z,92.25
2023-05-15T13:43:30.152Z,93.46
2023-05-15T13:45:57.825Z,100.00
2023-05-15T13:48:25.633Z,100.00
2023-05-15T13:50:53.352Z,100.00
2023-05-15T13:53:21.289Z,100.00
2023-05-15T13:55:49.017Z,100.00
2023-05-15T13:58:16.622Z,100.00
2023-05-15T14:00:45.741Z,100.00
2023-05-15T14:03:15.184Z,100.00
2023-05-15T14:05:43.152Z,100.00
2023-05-15T14:08:10.976Z,100.00
2023-05-15T14:10:38.622Z,100.00
2023-05-15T14:13:06.339Z,100.00
2023-05-15T14:15:34.015Z,100.00
2023-05-15T14:18:03.253Z,100.00
2023-05-15T14:20:30.905Z,100.00
2023-05-15T14:22:58.534Z,100.00
2023-05-15T14:25:26.813Z,100.00
2023-05-15T14:27:54.466Z,100.00
2023-05-15T14:30:22.986Z,100.00
2023-05-15T14:32:50.762Z,100.00
2023-05-15T14:35:19.751Z,100.00
2023-05-15T14:37:47.445Z,100.00
2023-05-15T14:40:15.034Z,100.00
2023-05-15T14:42:42.669Z,100.00
2023-05-15T14:45:10.831Z,100.00
2023-05-15T14:47:38.477Z,100.00
2023-05-15T14:50:06.314Z,100.00
2023-05-15T14:52:35.714Z,100.00
2023-05-15T14:57:33.949Z,100.00
2023-05-15T15:00:01.714Z,100.00
2023-05-15T15:02:29.527Z,100.00
2023-05-15T15:04:57.841Z,100.00
2023-05-15T15:07:27.977Z,100.00
2023-05-15T15:09:56.972Z,100.00
2023-05-15T15:12:24.632Z,99.51
2023-05-15T15:14:52.300Z,98.15
2023-05-15T15:17:19.908Z,100.00
2023-05-15T15:19:47.503Z,100.00
2023-05-15T15:22:15.198Z,99.61
2023-05-15T15:24:42.777Z,100.00
2023-05-15T15:27:11.788Z,100.00
2023-05-15T15:29:39.383Z,99.65
2023-05-15T15:32:07.299Z,98.17
2023-05-15T15:34:34.958Z,98.38
2023-05-15T15:37:02.737Z,100.00
2023-05-15T15:39:30.411Z,100.00
2023-05-15T15:41:57.997Z,98.80
2023-05-15T15:44:27.030Z,96.29
2023-05-15T15:46:54.692Z,96.94
2023-05-15T15:49:22.351Z,97.43
2023-05-15T15:51:49.968Z,98.92
2023-05-15T15:54:17.720Z,97.81
2023-05-15T15:56:47.746Z,96.67
2023-05-15T15:59:15.792Z,99.25
2023-05-15T16:01:45.534Z,99.96
2023-05-15T16:04:13.352Z,100.00
2023-05-15T16:06:41.050Z,100.00
2023-05-15T16:09:08.806Z,100.00
2023-05-15T16:11:36.661Z,100.00
2023-05-15T16:14:04.511Z,99.55
2023-05-15T16:16:32.181Z,98.03
2023-05-15T16:19:01.380Z,98.84
2023-05-15T16:21:29.049Z,97.01
2023-05-15T16:23:56.664Z,96.66
2023-05-15T16:26:24.316Z,100.00
2023-05-15T16:28:52.043Z,98.45
2023-05-15T16:31:20.188Z,99.02
2023-05-15T16:33:47.898Z,98.11
2023-05-15T16:36:16.966Z,100.00
2023-05-15T16:38:44.694Z,100.00
2023-05-15T16:41:12.455Z,100.00
2023-05-15T16:43:40.154Z,100.00
2023-05-15T16:46:07.959Z,100.00
2023-05-15T16:48:35.692Z,100.00
2023-05-15T16:51:03.422Z,100.00
2023-05-15T16:53:32.585Z,100.00
2023-05-15T16:56:00.378Z,98.36
2023-05-15T16:58:28.018Z,100.00
2023-05-15T17:00:55.648Z,100.00
2023-05-15T17:03:23.419Z,100.00
2023-05-15T17:05:52.424Z,99.75
2023-05-15T17:08:20.161Z,99.66
2023-05-15T17:10:49.197Z,100.00
2023-05-15T17:13:16.906Z,100.00
2023-05-15T17:15:47.091Z,100.00
2023-05-15T17:18:14.802Z,100.00
2023-05-15T17:20:42.449Z,100.00
2023-05-15T17:23:10.079Z,100.00
2023-05-15T17:25:37.807Z,100.00
2023-05-15T17:28:06.830Z,99.89
2023-05-15T17:30:34.650Z,99.94
2023-05-15T17:33:02.433Z,100.00
2023-05-15T17:35:32.815Z,100.00
2023-05-15T17:38:00.981Z,100.00
2023-05-15T17:40:28.564Z,100.00
2023-05-15T17:42:56.164Z,100.00
2023-05-15T17:45:25.545Z,100.00
2023-05-15T17:47:53.326Z,100.00
2023-05-15T17:50:21.005Z,100.00
2023-05-15T17:52:48.608Z,100.00
2023-05-15T17:55:16.359Z,100.00
2023-05-15T17:57:44.047Z,100.00
2023-05-15T18:00:12.308Z,100.00
2023-05-15T18:02:41.264Z,100.00
2023-05-15T18:05:10.137Z,100.00
2023-05-15T18:07:37.786Z,100.00
2023-05-15T18:10:06.565Z,100.00
2023-05-15T18:12:35.236Z,100.00
2023-05-15T18:15:03.043Z,100.00
2023-05-15T18:17:30.756Z,100.00
2023-05-15T18:19:59.819Z,100.00
2023-05-15T18:22:27.531Z,100.00
2023-05-15T18:24:55.161Z,100.00
2023-05-15T18:27:22.847Z,100.00
2023-05-15T18:29:51.570Z,100.00
2023-05-15T18:32:19.904Z,100.00
2023-05-15T18:34:47.915Z,100.00
2023-05-15T18:37:16.928Z,100.00
2023-05-15T18:39:44.555Z,100.00
2023-05-15T18:42:12.165Z,100.00
2023-05-15T18:44:41.652Z,100.00
2023-05-15T18:47:09.495Z,100.00
2023-05-15T18:49:37.357Z,100.00
2023-05-15T18:52:05.235Z,100.00
2023-05-15T18:54:34.212Z,100.00
2023-05-15T18:57:01.844Z,100.00
2023-05-15T18:59:30.104Z,100.00
2023-05-15T19:01:57.825Z,100.00
2023-05-15T19:04:25.434Z,100.00
2023-05-15T19:06:53.228Z,100.00
2023-05-15T19:09:20.904Z,100.00
2023-05-15T19:11:52.262Z,100.00
2023-05-15T19:14:19.879Z,100.00
2023-05-15T19:16:47.611Z,100.00
2023-05-15T19:19:15.824Z,100.00
2023-05-15T19:21:43.447Z,100.00
2023-05-15T19:24:11.499Z,100.00
2023-05-15T19:26:39.356Z,94.04
2023-05-15T19:29:08.403Z,86.87
2023-05-15T19:31:37.375Z,84.34
2023-05-15T19:34:05.014Z,84.67
2023-05-15T19:36:32.594Z,84.68
2023-05-15T19:39:00.241Z,83.38
2023-05-15T19:41:27.840Z,83.70
2023-05-15T19:43:55.495Z,81.56
2023-05-15T19:46:24.520Z,85.50
2023-05-15T19:48:52.133Z,83.73
2023-05-15T19:51:19.791Z,85.68
2023-05-15T19:53:47.459Z,88.70
2023-05-15T19:56:15.122Z,87.07
2023-05-15T19:58:42.841Z,87.42
2023-05-15T20:01:10.692Z,87.68
2023-05-15T20:03:39.872Z,87.10
2023-05-15T20:06:07.600Z,87.36
2023-05-15T20:08:35.229Z,88.67
2023-05-15T20:11:02.838Z,89.05
2023-05-15T20:13:30.875Z,89.37
2023-05-15T20:16:00.715Z,89.81
2023-05-15T20:18:30.363Z,87.38
2023-05-15T20:21:01.265Z,85.71
2023-05-15T20:23:28.898Z,86.47
2023-05-15T20:25:56.491Z,85.36
2023-05-15T20:28:25.732Z,84.14
2023-05-15T20:30:53.392Z,84.77
2023-05-15T20:33:21.089Z,84.90
2023-05-15T20:35:51.168Z,85.17
2023-05-15T20:38:20.743Z,85.77
2023-05-15T20:40:48.992Z,85.91
2023-05-15T20:43:16.613Z,85.56
2023-05-15T20:45:44.257Z,86.12
2023-05-15T20:48:12.046Z,86.97
2023-05-15T20:50:40.037Z,86.48
2023-05-15T20:53:08.090Z,87.02
2023-05-15T20:55:37.376Z,88.73
2023-05-15T20:58:05.077Z,89.68
2023-05-15T21:00:32.851Z,90.34
2023-05-15T21:03:00.597Z,90.89
2023-05-15T21:05:28.394Z,91.34
2023-05-15T21:07:55.988Z,92.46
2023-05-15T21:10:23.635Z,92.88
2023-05-15T21:12:52.616Z,92.90
2023-05-15T21:15:20.382Z,93.92
2023-05-15T21:17:48.074Z,94.55
2023-05-15T21:20:15.667Z,95.09
2023-05-15T21:22:43.334Z,96.09
2023-05-15T21:25:11.839Z,96.91
2023-05-15T21:27:39.515Z,97.43
2023-05-15T21:30:09.470Z,98.11
2023-05-15T21:32:37.167Z,98.68
2023-05-15T21:35:04.850Z,99.43
2023-05-15T21:37:32.656Z,99.88
2023-05-15T21:40:01.664Z,99.94
2023-05-15T21:42:29.982Z,100.00
2023-05-15T21:44:57.580Z,100.00
2023-05-15T21:47:26.701Z,100.00
2023-05-15T21:49:54.381Z,100.00
2023-05-15T21:52:21.962Z,99.81
2023-05-15T21:54:49.555Z,100.00
2023-05-15T21:57:17.304Z,100.00
2023-05-15T21:59:45.025Z,100.00
2023-05-15T22:02:12.806Z,99.96
2023-05-15T22:04:42.023Z,100.00
2023-05-15T22:07:09.788Z,100.00
2023-05-15T22:09:37.400Z,99.99
2023-05-15T22:12:05.275Z,100.00
2023-05-15T22:14:32.908Z,100.00
2023-05-15T22:17:00.632Z,100.00
2023-05-15T22:19:33.053Z,99.03
2023-05-15T22:22:03.393Z,99.80
2023-05-15T22:24:30.984Z,99.99
2023-05-15T22:26:58.753Z,99.29
2023-05-15T22:29:26.621Z,98.25
2023-05-15T22:31:54.204Z,98.61
2023-05-15T22:34:21.829Z,97.91
2023-05-15T22:36:49.444Z,97.89
2023-05-15T22:39:18.428Z,96.91
2023-05-15T22:41:46.058Z,96.90
2023-05-15T22:44:13.647Z,96.26
2023-05-15T22:46:41.446Z,94.37
2023-05-15T22:49:09.877Z,95.08
2023-05-15T22:51:38.480Z,94.33
2023-05-15T22:54:06.335Z,95.34
2023-05-15T22:56:35.596Z,95.55
2023-05-15T22:59:04.539Z,95.51
2023-05-15T23:01:32.247Z,95.72
2023-05-15T23:04:00.031Z,95.53
2023-05-15T23:06:27.775Z,95.41
2023-05-15T23:08:55.860Z,96.56
2023-05-15T23:11:24.456Z,96.01
2023-05-15T23:13:53.457Z,96.36
2023-05-15T23:16:21.224Z,95.75
2023-05-15T23:18:48.941Z,96.12
2023-05-15T23:21:16.603Z,96.18
2023-05-15T23:23:44.767Z,96.07
2023-05-15T23:26:12.510Z,95.94
2023-05-15T23:28:40.365Z,96.24
2023-05-15T23:31:09.447Z,97.23
2023-05-15T23:33:37.940Z,96.08
2023-05-15T23:36:06.026Z,97.52
2023-05-15T23:38:33.614Z,96.98
2023-05-15T23:41:01.248Z,97.16
2023-05-15T23:43:29.625Z,98.35
2023-05-15T23:45:57.248Z,97.94
2023-05-15T23:48:26.232Z,98.83
2023-05-15T23:50:54.556Z,98.12
2023-05-15T23:53:22.177Z,98.87
2023-05-15T23:55:49.978Z,99.33
2023-05-15T23:58:17.799Z,99.26
